createdAt,value
2018-08-03T00:02:28.091Z,26.50
2018-08-03T00:04:57.443Z,26.50
2018-08-03T00:07:26.783Z,26.40
2018-08-03T00:09:56.079Z,26.40
2018-08-03T00:12:25.379Z,26.40
2018-08-03T00:14:54.672Z,26.40
2018-08-03T00:17:24.162Z,26.40
2018-08-03T00:19:53.487Z,26.30
2018-08-03T00:22:22.787Z,26.30
2018-08-03T00:24:52.067Z,26.30
2018-08-03T00:27:21.452Z,26.30
2018-08-03T00:29:50.738Z,26.30
2018-08-03T00:32:20.048Z,26.30
2018-08-03T00:34:49.358Z,26.30
2018-08-03T00:37:18.648Z,26.20
2018-08-03T00:39:47.980Z,26.20
2018-08-03T00:42:17.324Z,26.20
2018-08-03T00:44:46.664Z,26.20
2018-08-03T00:47:16.023Z,26.30
2018-08-03T00:49:45.295Z,26.20
2018-08-03T00:52:14.607Z,26.20
2018-08-03T00:54:43.947Z,26.20
2018-08-03T00:57:13.293Z,26.20
2018-08-03T00:59:42.579Z,26.20
2018-08-03T01:02:11.884Z,26.20
2018-08-03T01:04:41.170Z,26.20
2018-08-03T01:07:10.481Z,26.20
2018-08-03T01:09:39.747Z,26.20
2018-08-03T01:12:09.051Z,26.20
2018-08-03T01:14:38.352Z,26.10
2018-08-03T01:17:07.761Z,26.10
2018-08-03T01:19:37.075Z,26.10
2018-08-03T01:22:06.468Z,26.00
2018-08-03T01:24:35.753Z,26.00
2018-08-03T01:29:33.892Z,26.00
2018-08-03T01:32:03.175Z,26.00
2018-08-03T01:34:32.483Z,25.90
2018-08-03T01:37:01.797Z,25.90
2018-08-03T01:39:31.114Z,25.90
2018-08-03T01:42:00.407Z,25.90
2018-08-03T01:44:29.712Z,25.90
2018-08-03T01:46:59.064Z,25.90
2018-08-03T01:49:28.436Z,25.90
2018-08-03T01:51:57.760Z,25.90
2018-08-03T01:54:27.075Z,25.90
2018-08-03T01:56:56.363Z,25.90
2018-08-03T01:59:25.680Z,25.90
2018-08-03T02:01:54.956Z,25.90
2018-08-03T02:06:53.127Z,25.90
2018-08-03T02:09:22.433Z,25.90
2018-08-03T02:11:51.712Z,25.90
2018-08-03T02:14:21.031Z,25.90
2018-08-03T02:16:50.304Z,25.90
2018-08-03T02:19:19.574Z,25.80
2018-08-03T02:21:48.870Z,25.80
2018-08-03T02:24:18.176Z,25.80
2018-08-03T02:26:47.571Z,25.80
2018-08-03T02:29:16.860Z,25.80
2018-08-03T02:31:46.176Z,25.80
2018-08-03T02:34:15.526Z,25.80
2018-08-03T02:36:44.836Z,25.80
2018-08-03T02:39:14.155Z,25.70
2018-08-03T02:44:12.293Z,25.70
2018-08-03T02:46:41.621Z,25.70
2018-08-03T02:49:10.940Z,25.70
2018-08-03T02:51:40.260Z,25.70
2018-08-03T02:54:09.584Z,25.70
2018-08-03T02:56:38.891Z,25.60
2018-08-03T02:59:08.208Z,25.60
2018-08-03T03:01:37.502Z,25.60
2018-08-03T03:04:07.014Z,25.60
2018-08-03T03:06:36.321Z,25.60
2018-08-03T03:09:08.443Z,25.60
2018-08-03T03:11:37.765Z,25.60
2018-08-03T03:14:07.293Z,25.60
2018-08-03T03:16:36.599Z,25.50
2018-08-03T03:19:05.904Z,25.40
2018-08-03T03:21:35.239Z,25.50
2018-08-03T03:24:04.534Z,25.40
2018-08-03T03:26:33.828Z,25.40
2018-08-03T03:29:03.130Z,25.50
2018-08-03T03:31:32.491Z,25.50
2018-08-03T03:34:01.874Z,25.50
2018-08-03T03:36:31.248Z,25.50
2018-08-03T03:39:00.567Z,25.50
2018-08-03T03:41:29.897Z,25.50
2018-08-03T03:43:59.184Z,25.50
2018-08-03T03:46:28.488Z,25.50
2018-08-03T03:48:57.803Z,25.50
2018-08-03T03:51:27.083Z,25.50
2018-08-03T03:53:56.416Z,25.40
2018-08-03T03:56:25.704Z,25.50
2018-08-03T03:58:55.011Z,25.40
2018-08-03T04:01:24.376Z,25.40
2018-08-03T04:03:53.830Z,25.40
2018-08-03T04:06:23.112Z,25.40
2018-08-03T04:08:52.457Z,25.40
2018-08-03T04:11:21.871Z,25.40
2018-08-03T04:13:51.188Z,25.40
2018-08-03T04:16:20.547Z,25.40
2018-08-03T04:18:49.919Z,25.40
2018-08-03T04:21:19.212Z,25.40
2018-08-03T04:23:48.563Z,25.40
2018-08-03T04:26:17.900Z,25.40
2018-08-03T04:28:47.236Z,25.40
2018-08-03T04:31:16.545Z,25.40
2018-08-03T04:33:45.887Z,25.40
2018-08-03T04:36:15.209Z,25.30
2018-08-03T04:38:44.571Z,25.30
2018-08-03T04:41:13.938Z,25.30
2018-08-03T04:43:43.249Z,25.30
2018-08-03T04:46:12.592Z,25.30
2018-08-03T04:48:42.000Z,25.30
2018-08-03T04:51:11.259Z,25.30
2018-08-03T04:53:40.547Z,25.30
2018-08-03T04:56:09.859Z,25.30
2018-08-03T04:58:39.196Z,25.10
2018-08-03T05:01:08.560Z,25.10
2018-08-03T05:03:38.103Z,25.10
2018-08-03T05:06:07.469Z,25.20
2018-08-03T05:08:36.773Z,25.20
2018-08-03T05:11:06.076Z,25.30
2018-08-03T05:13:35.401Z,25.30
2018-08-03T05:16:04.672Z,25.30
2018-08-03T05:18:34.030Z,25.40
2018-08-03T05:21:03.338Z,25.50
2018-08-03T05:23:32.777Z,25.50
2018-08-03T05:26:02.046Z,25.60
2018-08-03T05:28:31.368Z,25.60
2018-08-03T05:31:00.674Z,25.50
2018-08-03T05:33:29.992Z,25.50
2018-08-03T05:35:59.387Z,25.40
2018-08-03T05:38:28.664Z,25.50
2018-08-03T05:40:57.967Z,25.50
2018-08-03T05:43:31.482Z,25.50
2018-08-03T05:46:02.334Z,25.50
2018-08-03T05:48:33.745Z,25.50
2018-08-03T05:51:06.560Z,25.40
2018-08-03T05:53:35.890Z,25.50
2018-08-03T05:58:35.306Z,25.40
2018-08-03T06:01:05.675Z,25.40
2018-08-03T06:03:50.811Z,25.40
2018-08-03T06:06:44.890Z,25.40
2018-08-03T06:09:14.220Z,25.50
2018-08-03T06:11:45.275Z,25.50
2018-08-03T06:14:17.347Z,25.50
2018-08-03T06:16:48.884Z,25.50
2018-08-03T06:19:22.626Z,25.50
2018-08-03T06:21:51.991Z,25.40
2018-08-03T06:27:03.950Z,25.30
2018-08-03T06:29:52.607Z,25.30
2018-08-03T06:32:23.303Z,25.30
2018-08-03T06:34:52.571Z,25.20
2018-08-03T06:40:00.928Z,25.20
2018-08-03T06:42:30.215Z,25.30
2018-08-03T06:44:59.549Z,25.30
2018-08-03T06:47:28.827Z,25.30
2018-08-03T06:49:58.166Z,25.30
2018-08-03T06:52:27.473Z,25.20
2018-08-03T06:54:56.744Z,25.20
2018-08-03T06:57:26.121Z,25.30
2018-08-03T06:59:55.583Z,25.30
2018-08-03T07:02:24.882Z,25.30
2018-08-03T07:04:54.293Z,25.30
2018-08-03T07:07:23.595Z,25.30
2018-08-03T07:09:52.901Z,25.30
2018-08-03T07:12:22.367Z,25.30
2018-08-03T07:14:51.761Z,25.30
2018-08-03T07:17:21.028Z,25.50
2018-08-03T07:19:50.340Z,25.50
2018-08-03T07:22:19.641Z,25.60
2018-08-03T07:24:48.928Z,25.60
2018-08-03T07:27:18.277Z,25.70
2018-08-03T07:29:47.646Z,25.70
2018-08-03T07:34:45.792Z,25.70
2018-08-03T07:37:15.354Z,25.80
2018-08-03T07:39:44.620Z,25.90
2018-08-03T07:42:16.987Z,26.00
2018-08-03T07:44:47.890Z,26.00
2018-08-03T07:47:17.175Z,26.00
2018-08-03T07:49:46.509Z,26.00
2018-08-03T07:52:15.768Z,26.00
2018-08-03T07:54:45.048Z,26.00
2018-08-03T07:57:14.330Z,26.00
2018-08-03T07:59:43.590Z,26.00
2018-08-03T08:02:12.873Z,26.10
2018-08-03T08:04:42.166Z,26.10
2018-08-03T08:07:11.594Z,26.10
2018-08-03T08:09:40.908Z,26.10
2018-08-03T08:12:10.172Z,26.10
2018-08-03T08:14:39.461Z,26.10
2018-08-03T08:17:08.778Z,26.10
2018-08-03T08:19:38.340Z,26.20
2018-08-03T08:22:07.708Z,26.20
2018-08-03T08:24:37.070Z,26.20
2018-08-03T08:27:07.585Z,26.20
2018-08-03T08:29:36.852Z,26.20
2018-08-03T08:32:06.176Z,26.20
2018-08-03T08:34:35.444Z,26.20
2018-08-03T08:37:04.886Z,26.20
2018-08-03T08:39:34.098Z,26.20
2018-08-03T08:42:03.379Z,26.20
2018-08-03T08:44:32.658Z,26.20
2018-08-03T08:47:01.910Z,26.20
2018-08-03T08:49:31.324Z,26.20
2018-08-03T08:52:00.595Z,26.20
2018-08-03T08:54:29.894Z,26.20
2018-08-03T08:56:59.165Z,26.20
2018-08-03T08:59:28.470Z,26.20
2018-08-03T09:01:57.699Z,26.20
2018-08-03T09:04:26.955Z,26.20
2018-08-03T09:06:56.351Z,26.20
2018-08-03T09:09:25.552Z,26.20
2018-08-03T09:11:54.831Z,26.30
2018-08-03T09:14:24.204Z,26.30
2018-08-03T09:16:53.560Z,26.30
2018-08-03T09:19:22.851Z,26.30
2018-08-03T09:21:52.140Z,26.30
2018-08-03T09:24:21.418Z,26.30
2018-08-03T09:26:50.748Z,26.30
2018-08-03T09:29:19.999Z,26.30
2018-08-03T09:31:49.282Z,26.30
2018-08-03T09:34:18.701Z,26.30
2018-08-03T09:36:51.529Z,26.30
2018-08-03T09:39:20.812Z,26.30
2018-08-03T09:41:50.264Z,26.30
2018-08-03T09:44:19.613Z,26.30
2018-08-03T09:46:48.975Z,26.30
2018-08-03T09:49:18.853Z,26.30
2018-08-03T09:51:48.089Z,26.30
2018-08-03T09:54:17.376Z,26.30
2018-08-03T09:56:46.660Z,26.30
2018-08-03T09:59:15.920Z,26.30
2018-08-03T10:01:45.352Z,26.30
2018-08-03T10:04:14.632Z,26.40
2018-08-03T10:06:43.910Z,26.30
2018-08-03T10:09:13.170Z,26.40
2018-08-03T10:11:42.439Z,26.40
2018-08-03T10:14:11.744Z,26.40
2018-08-03T10:16:41.064Z,26.40
2018-08-03T10:19:10.320Z,26.40
2018-08-03T10:21:39.599Z,26.40
2018-08-03T10:24:08.898Z,26.40
2018-08-03T10:26:38.171Z,26.40
2018-08-03T10:29:07.463Z,26.40
2018-08-03T10:31:36.984Z,26.40
2018-08-03T10:34:06.509Z,26.40
2018-08-03T10:36:36.109Z,26.50
2018-08-03T10:39:07.528Z,26.50
2018-08-03T10:41:37.257Z,26.40
2018-08-03T10:44:06.831Z,26.40
2018-08-03T10:46:36.115Z,26.40
2018-08-03T10:49:05.411Z,26.40
2018-08-03T10:51:34.675Z,26.40
2018-08-03T10:54:03.950Z,26.40
2018-08-03T10:56:33.247Z,26.40
2018-08-03T10:59:02.535Z,26.40
2018-08-03T11:01:31.963Z,26.40
2018-08-03T11:04:01.204Z,26.40
2018-08-03T11:06:30.495Z,26.40
2018-08-03T11:08:59.792Z,26.40
2018-08-03T11:11:29.080Z,26.40
2018-08-03T11:13:58.474Z,26.40
2018-08-03T11:16:27.600Z,26.40
2018-08-03T11:18:57.072Z,26.40
2018-08-03T11:21:26.380Z,26.40
2018-08-03T11:23:55.662Z,26.40
2018-08-03T11:26:24.928Z,26.40
2018-08-03T11:28:54.212Z,26.40
2018-08-03T11:31:23.747Z,26.40
2018-08-03T11:33:53.157Z,26.50
2018-08-03T11:36:22.439Z,26.50
2018-08-03T11:38:51.706Z,26.50
2018-08-03T11:41:20.963Z,26.50
2018-08-03T11:43:50.281Z,26.50
2018-08-03T11:46:19.551Z,26.50
2018-08-03T11:48:48.854Z,26.50
2018-08-03T11:51:18.231Z,26.50
2018-08-03T11:53:47.538Z,26.50
2018-08-03T11:56:16.851Z,26.50
2018-08-03T11:58:46.145Z,26.50
2018-08-03T12:01:15.430Z,26.50
2018-08-03T12:03:44.759Z,26.50
2018-08-03T12:06:14.307Z,26.50
2018-08-03T12:08:43.580Z,26.50
2018-08-03T12:11:12.856Z,26.50
2018-08-03T12:13:42.175Z,26.50
2018-08-03T12:16:11.467Z,26.50
2018-08-03T12:18:40.734Z,26.50
2018-08-03T12:21:10.007Z,26.50
2018-08-03T12:23:39.345Z,26.50
2018-08-03T12:26:08.587Z,26.50
2018-08-03T12:28:38.547Z,26.60
2018-08-03T12:31:07.884Z,26.60
2018-08-03T12:33:37.143Z,26.60
2018-08-03T12:36:06.679Z,26.60
2018-08-03T12:38:36.008Z,26.60
2018-08-03T12:41:05.286Z,26.60
2018-08-03T12:43:34.535Z,26.60
2018-08-03T12:46:03.867Z,26.60
2018-08-03T12:48:33.066Z,26.60
2018-08-03T12:51:02.384Z,26.60
2018-08-03T12:53:31.683Z,26.60
2018-08-03T12:56:00.966Z,26.60
2018-08-03T12:58:30.272Z,26.60
2018-08-03T13:00:59.563Z,26.70
2018-08-03T13:03:28.863Z,26.70
2018-08-03T13:05:58.116Z,26.70
2018-08-03T13:08:27.485Z,26.70
2018-08-03T13:10:56.706Z,26.70
2018-08-03T13:13:26.041Z,26.70
2018-08-03T13:15:55.375Z,26.70
2018-08-03T13:18:24.655Z,26.70
2018-08-03T13:20:54.228Z,26.70
2018-08-03T13:23:24.647Z,26.70
2018-08-03T13:25:54.449Z,26.70
2018-08-03T13:28:23.699Z,26.70
2018-08-03T13:30:52.987Z,26.60
2018-08-03T13:33:22.272Z,26.70
2018-08-03T13:35:51.558Z,26.80
2018-08-03T13:40:49.629Z,26.80
2018-08-03T13:43:18.901Z,26.80
2018-08-03T13:45:48.201Z,26.70
2018-08-03T13:48:17.540Z,26.80
2018-08-03T13:50:46.793Z,26.80
2018-08-03T13:53:16.048Z,26.80
2018-08-03T13:55:45.315Z,26.80
2018-08-03T13:58:14.719Z,26.80
2018-08-03T14:00:43.968Z,26.80
2018-08-03T14:03:13.321Z,26.80
2018-08-03T14:05:42.567Z,26.80
2018-08-03T14:08:11.878Z,26.80
2018-08-03T14:10:41.155Z,26.80
2018-08-03T14:13:10.465Z,26.80
2018-08-03T14:15:39.813Z,26.80
2018-08-03T14:18:09.085Z,26.80
2018-08-03T14:20:38.348Z,26.80
2018-08-03T14:23:07.643Z,26.80
2018-08-03T14:25:36.898Z,26.80
2018-08-03T14:28:06.352Z,26.80
2018-08-03T14:30:35.623Z,26.90
2018-08-03T14:33:05.129Z,26.90
2018-08-03T14:35:34.467Z,26.90
2018-08-03T14:38:03.785Z,26.90
2018-08-03T14:40:33.027Z,26.90
2018-08-03T14:43:02.595Z,26.90
2018-08-03T14:45:31.876Z,26.90
2018-08-03T14:48:01.298Z,26.90
2018-08-03T14:50:30.629Z,26.90
2018-08-03T14:52:59.925Z,26.90
2018-08-03T14:55:29.171Z,26.90
2018-08-03T14:57:58.435Z,26.90
2018-08-03T15:00:27.695Z,26.90
2018-08-03T15:02:56.962Z,26.90
2018-08-03T15:05:26.258Z,26.90
2018-08-03T15:10:24.353Z,26.90
2018-08-03T15:12:53.672Z,26.90
2018-08-03T15:15:22.963Z,27.00
2018-08-03T15:17:52.304Z,27.00
2018-08-03T15:20:21.590Z,27.00
2018-08-03T15:22:50.935Z,27.00
2018-08-03T15:25:20.208Z,26.90
2018-08-03T15:27:49.482Z,27.00
2018-08-03T15:30:18.739Z,27.00
2018-08-03T15:32:47.987Z,27.00
2018-08-03T15:35:17.276Z,27.00
2018-08-03T15:37:46.524Z,27.00
2018-08-03T15:40:15.807Z,27.00
2018-08-03T15:42:45.092Z,27.00
2018-08-03T15:45:14.379Z,27.00
2018-08-03T15:47:43.700Z,27.00
2018-08-03T15:50:12.976Z,27.00
2018-08-03T15:52:42.271Z,27.00
2018-08-03T15:55:11.596Z,27.00
2018-08-03T15:57:40.852Z,27.00
2018-08-03T16:00:10.855Z,27.00
2018-08-03T16:02:40.327Z,27.00
2018-08-03T16:05:10.166Z,27.00
2018-08-03T16:07:39.482Z,27.00
2018-08-03T16:10:08.736Z,27.00
2018-08-03T16:12:38.032Z,27.00
2018-08-03T16:15:07.454Z,27.10
2018-08-03T16:17:36.869Z,27.10
2018-08-03T16:20:06.167Z,27.10
2018-08-03T16:22:35.750Z,27.10
2018-08-03T16:25:05.747Z,27.10
2018-08-03T16:27:35.206Z,27.10
2018-08-03T16:30:05.578Z,27.10
2018-08-03T16:32:34.902Z,27.10
2018-08-03T16:35:04.192Z,27.10
2018-08-03T16:37:33.526Z,27.10
2018-08-03T16:40:02.805Z,27.10
2018-08-03T16:42:32.424Z,27.10
2018-08-03T16:45:01.697Z,27.10
2018-08-03T16:47:31.139Z,27.10
2018-08-03T16:50:00.380Z,27.10
2018-08-03T16:52:29.652Z,27.10
2018-08-03T16:54:58.986Z,27.10
2018-08-03T16:57:28.344Z,27.10
2018-08-03T16:59:57.620Z,27.10
2018-08-03T17:02:26.924Z,27.20
2018-08-03T17:04:56.288Z,27.20
2018-08-03T17:07:25.577Z,27.20
2018-08-03T17:09:54.906Z,27.10
2018-08-03T17:12:24.131Z,27.10
2018-08-03T17:14:53.442Z,27.20
2018-08-03T17:17:22.700Z,27.20
2018-08-03T17:19:51.992Z,27.20
2018-08-03T17:22:21.256Z,27.20
2018-08-03T17:24:50.532Z,27.20
2018-08-03T17:27:19.838Z,27.20
2018-08-03T17:29:49.116Z,27.20
2018-08-03T17:32:18.384Z,27.20
2018-08-03T17:37:16.476Z,27.20
2018-08-03T17:39:45.736Z,27.20
2018-08-03T17:42:15.109Z,27.20
2018-08-03T17:44:44.427Z,27.20
2018-08-03T17:47:13.695Z,27.20
2018-08-03T17:49:43.020Z,27.20
2018-08-03T17:52:12.343Z,27.30
2018-08-03T17:54:41.625Z,27.20
2018-08-03T17:57:10.971Z,27.20
2018-08-03T17:59:40.255Z,27.30
2018-08-03T18:04:38.537Z,27.30
2018-08-03T18:07:07.860Z,27.30
2018-08-03T18:09:37.128Z,27.30
2018-08-03T18:12:07.163Z,27.30
2018-08-03T18:14:36.508Z,27.30
2018-08-03T18:19:34.648Z,27.30
2018-08-03T18:22:03.898Z,27.30
2018-08-03T18:24:33.168Z,27.30
2018-08-03T18:27:02.476Z,27.30
2018-08-03T18:29:31.748Z,27.30
2018-08-03T18:32:01.016Z,27.30
2018-08-03T18:34:30.303Z,27.30
2018-08-03T18:36:59.538Z,27.30
2018-08-03T18:39:28.823Z,27.30
2018-08-03T18:41:58.079Z,27.30
2018-08-03T18:44:27.344Z,27.30
2018-08-03T18:46:56.683Z,27.30
2018-08-03T18:49:25.980Z,27.30
2018-08-03T18:51:55.248Z,27.30
2018-08-03T18:54:24.581Z,27.30
2018-08-03T18:56:53.931Z,27.40
2018-08-03T18:59:23.210Z,27.40
2018-08-03T19:01:52.486Z,27.40
2018-08-03T19:04:21.786Z,27.40
2018-08-03T19:06:51.076Z,27.40
2018-08-03T19:09:20.361Z,27.40
2018-08-03T19:11:49.671Z,27.40
2018-08-03T19:14:19.049Z,27.40
2018-08-03T19:16:48.355Z,27.40
2018-08-03T19:19:20.023Z,27.30
2018-08-03T19:21:49.831Z,27.30
2018-08-03T19:24:19.191Z,27.30
2018-08-03T19:26:48.908Z,27.30
2018-08-03T19:29:18.221Z,27.30
2018-08-03T19:31:47.514Z,27.30
2018-08-03T19:34:17.070Z,27.30
2018-08-03T19:36:46.339Z,27.30
2018-08-03T19:39:22.620Z,27.30
2018-08-03T19:41:52.147Z,27.20
2018-08-03T19:44:21.679Z,27.20
2018-08-03T19:46:57.264Z,27.20
2018-08-03T19:49:26.563Z,27.20
2018-08-03T19:51:55.991Z,27.20
2018-08-03T19:54:25.274Z,27.20
2018-08-03T19:56:54.564Z,27.10
2018-08-03T19:59:23.971Z,27.10
2018-08-03T20:01:53.222Z,27.20
2018-08-03T20:04:22.536Z,27.20
2018-08-03T20:06:51.922Z,27.10
2018-08-03T20:09:21.437Z,27.10
2018-08-03T20:11:50.760Z,27.10
2018-08-03T20:14:20.040Z,27.10
2018-08-03T20:16:49.379Z,27.00
2018-08-03T20:19:18.745Z,27.00
2018-08-03T20:21:48.004Z,27.00
2018-08-03T20:24:17.330Z,27.00
2018-08-03T20:26:46.666Z,27.00
2018-08-03T20:29:16.116Z,27.00
2018-08-03T20:31:45.434Z,27.00
2018-08-03T20:34:14.759Z,27.00
2018-08-03T20:36:44.137Z,27.00
2018-08-03T20:39:13.489Z,27.00
2018-08-03T20:41:42.742Z,27.00
2018-08-03T20:44:12.139Z,27.00
2018-08-03T20:46:41.420Z,27.00
2018-08-03T20:49:10.727Z,27.00
2018-08-03T20:51:40.100Z,27.00
2018-08-03T20:54:09.375Z,27.00
2018-08-03T20:56:39.055Z,27.00
2018-08-03T20:59:08.389Z,27.00
2018-08-03T21:01:37.638Z,27.00
2018-08-03T21:04:06.935Z,27.00
2018-08-03T21:06:36.211Z,27.00
2018-08-03T21:09:08.088Z,26.90
2018-08-03T21:11:37.388Z,26.90
2018-08-03T21:14:06.787Z,26.90
2018-08-03T21:16:36.727Z,26.90
2018-08-03T21:19:06.040Z,26.90
2018-08-03T21:21:36.237Z,26.90
2018-08-03T21:24:06.380Z,26.90
2018-08-03T21:26:35.855Z,26.90
2018-08-03T21:29:05.198Z,26.90
2018-08-03T21:31:34.486Z,26.90
2018-08-03T21:34:03.838Z,26.90
2018-08-03T21:36:47.604Z,26.90
2018-08-03T21:39:16.907Z,26.80
2018-08-03T21:41:46.438Z,26.80
2018-08-03T21:44:15.722Z,26.80
2018-08-03T21:46:45.031Z,26.80
2018-08-03T21:49:14.314Z,26.80
2018-08-03T21:51:43.605Z,26.80
2018-08-03T21:54:12.943Z,26.80
2018-08-03T21:56:42.241Z,26.80
2018-08-03T21:59:11.551Z,26.80
2018-08-03T22:01:40.826Z,26.80
2018-08-03T22:04:10.222Z,26.80
2018-08-03T22:06:39.506Z,26.70
2018-08-03T22:09:09.747Z,26.70
2018-08-03T22:11:39.151Z,26.70
2018-08-03T22:14:08.467Z,26.70
2018-08-03T22:16:37.729Z,26.70
2018-08-03T22:19:07.069Z,26.70
2018-08-03T22:21:36.345Z,26.70
2018-08-03T22:24:05.687Z,26.70
2018-08-03T22:26:34.986Z,26.70
2018-08-03T22:29:04.277Z,26.60
2018-08-03T22:31:33.690Z,26.60
2018-08-03T22:34:03.005Z,26.60
2018-08-03T22:36:32.293Z,26.60
2018-08-03T22:39:01.694Z,26.60
2018-08-03T22:41:31.063Z,26.60
2018-08-03T22:44:00.335Z,26.60
2018-08-03T22:46:29.634Z,26.60
2018-08-03T22:48:59.006Z,26.60
2018-08-03T22:51:28.328Z,26.70
2018-08-03T22:53:57.630Z,26.70
2018-08-03T22:56:26.994Z,26.60
2018-08-03T22:58:57.335Z,26.60
2018-08-03T23:01:27.413Z,26.60
2018-08-03T23:06:26.031Z,26.60
2018-08-03T23:08:55.290Z,26.60
2018-08-03T23:11:24.589Z,26.60
2018-08-03T23:13:53.939Z,26.60
2018-08-03T23:16:23.164Z,26.50
2018-08-03T23:18:52.475Z,26.50
2018-08-03T23:21:21.768Z,26.50
2018-08-03T23:23:51.104Z,26.50
2018-08-03T23:26:20.400Z,26.50
2018-08-03T23:28:49.810Z,26.50
2018-08-03T23:31:19.140Z,26.50
2018-08-03T23:33:48.427Z,26.50
2018-08-03T23:36:17.777Z,26.50
2018-08-03T23:38:47.010Z,26.50
2018-08-03T23:41:16.332Z,26.40
2018-08-03T23:43:45.598Z,26.40
2018-08-03T23:46:14.923Z,26.40
2018-08-03T23:48:44.187Z,26.50
2018-08-03T23:51:13.493Z,26.40
2018-08-03T23:53:42.756Z,26.40
2018-08-03T23:56:12.100Z,26.40
2018-08-03T23:58:41.436Z,26.40
